sensor_id;sensor_type;location;lat;lon;timestamp;P1;durP1;ratioP1;P2;durP2;ratioP2
76576;SDS011;65441;44.748;37.600;2023-02-28T00:01:49;10.30;;;4.20;;
76576;SDS011;65441;44.748;37.600;2023-02-28T00:04:18;10.93;;;4.38;;
76576;SDS011;65441;44.748;37.600;2023-02-28T00:06:46;8.85;;;4.00;;
76576;SDS011;65441;44.748;37.600;2023-02-28T00:09:15;11.23;;;4.22;;
76576;SDS011;65441;44.748;37.600;2023-02-28T00:11:43;9.45;;;3.80;;
76576;SDS011;65441;44.748;37.600;2023-02-28T00:14:14;10.68;;;4.32;;
76576;SDS011;65441;44.748;37.600;2023-02-28T00:16:44;9.65;;;4.03;;
76576;SDS011;65441;44.748;37.600;2023-02-28T00:19:13;11.85;;;4.78;;
76576;SDS011;65441;44.748;37.600;2023-02-28T00:21:41;12.07;;;4.65;;
76576;SDS011;65441;44.748;37.600;2023-02-28T00:24:10;12.85;;;4.47;;
76576;SDS011;65441;44.748;37.600;2023-02-28T00:26:39;12.50;;;4.35;;
76576;SDS011;65441;44.748;37.600;2023-02-28T00:29:07;9.93;;;4.20;;
76576;SDS011;65441;44.748;37.600;2023-02-28T00:31:36;10.43;;;3.92;;
76576;SDS011;65441;44.748;37.600;2023-02-28T00:34:07;10.55;;;4.40;;
76576;SDS011;65441;44.748;37.600;2023-02-28T00:36:35;13.13;;;4.53;;
76576;SDS011;65441;44.748;37.600;2023-02-28T00:39:04;8.50;;;4.03;;
76576;SDS011;65441;44.748;37.600;2023-02-28T00:41:33;10.75;;;4.50;;
76576;SDS011;65441;44.748;37.600;2023-02-28T00:44:02;11.82;;;4.60;;
76576;SDS011;65441;44.748;37.600;2023-02-28T00:46:32;12.27;;;4.43;;
76576;SDS011;65441;44.748;37.600;2023-02-28T00:49:01;10.93;;;4.18;;
76576;SDS011;65441;44.748;37.600;2023-02-28T00:51:31;10.93;;;4.45;;
76576;SDS011;65441;44.748;37.600;2023-02-28T00:54:00;9.93;;;3.92;;
76576;SDS011;65441;44.748;37.600;2023-02-28T00:56:28;14.07;;;4.32;;
76576;SDS011;65441;44.748;37.600;2023-02-28T00:58:57;13.80;;;4.63;;
76576;SDS011;65441;44.748;37.600;2023-02-28T01:01:26;10.98;;;4.05;;
76576;SDS011;65441;44.748;37.600;2023-02-28T01:03:54;9.15;;;3.75;;
76576;SDS011;65441;44.748;37.600;2023-02-28T01:06:23;11.85;;;4.32;;
76576;SDS011;65441;44.748;37.600;2023-02-28T01:08:53;11.85;;;4.00;;
76576;SDS011;65441;44.748;37.600;2023-02-28T01:11:22;14.95;;;4.25;;
76576;SDS011;65441;44.748;37.600;2023-02-28T01:13:53;13.73;;;4.60;;
76576;SDS011;65441;44.748;37.600;2023-02-28T01:16:22;9.50;;;3.90;;
76576;SDS011;65441;44.748;37.600;2023-02-28T01:18:50;10.80;;;4.13;;
76576;SDS011;65441;44.748;37.600;2023-02-28T01:21:20;8.52;;;3.58;;
76576;SDS011;65441;44.748;37.600;2023-02-28T01:23:49;11.93;;;4.25;;
76576;SDS011;65441;44.748;37.600;2023-02-28T01:26:20;11.82;;;3.55;;
76576;SDS011;65441;44.748;37.600;2023-02-28T01:28:50;12.15;;;4.00;;
76576;SDS011;65441;44.748;37.600;2023-02-28T01:31:20;10.45;;;3.65;;
76576;SDS011;65441;44.748;37.600;2023-02-28T01:33:49;11.02;;;4.20;;
76576;SDS011;65441;44.748;37.600;2023-02-28T01:36:19;10.30;;;4.25;;
76576;SDS011;65441;44.748;37.600;2023-02-28T01:38:49;14.27;;;4.38;;
76576;SDS011;65441;44.748;37.600;2023-02-28T01:41:20;9.38;;;4.35;;
76576;SDS011;65441;44.748;37.600;2023-02-28T01:43:58;11.68;;;4.45;;
76576;SDS011;65441;44.748;37.600;2023-02-28T01:46:33;10.23;;;3.63;;
76576;SDS011;65441;44.748;37.600;2023-02-28T01:49:06;13.13;;;4.55;;
76576;SDS011;65441;44.748;37.600;2023-02-28T01:51:38;11.20;;;4.57;;
76576;SDS011;65441;44.748;37.600;2023-02-28T01:54:18;12.18;;;4.60;;
76576;SDS011;65441;44.748;37.600;2023-02-28T01:56:53;15.57;;;5.47;;
76576;SDS011;65441;44.748;37.600;2023-02-28T01:59:26;13.25;;;4.97;;
76576;SDS011;65441;44.748;37.600;2023-02-28T02:01:57;15.32;;;5.30;;
76576;SDS011;65441;44.748;37.600;2023-02-28T02:04:27;15.30;;;6.45;;
76576;SDS011;65441;44.748;37.600;2023-02-28T02:07:04;16.73;;;6.03;;
76576;SDS011;65441;44.748;37.600;2023-02-28T02:09:33;14.02;;;5.32;;
76576;SDS011;65441;44.748;37.600;2023-02-28T02:12:06;14.95;;;4.68;;
76576;SDS011;65441;44.748;37.600;2023-02-28T02:14:48;10.68;;;4.68;;
76576;SDS011;65441;44.748;37.600;2023-02-28T02:17:28;14.23;;;4.75;;
76576;SDS011;65441;44.748;37.600;2023-02-28T02:26:13;10.77;;;4.45;;
76576;SDS011;65441;44.748;37.600;2023-02-28T02:29:05;11.05;;;4.30;;
76576;SDS011;65441;44.748;37.600;2023-02-28T02:32:09;17.17;;;4.90;;
76576;SDS011;65441;44.748;37.600;2023-02-28T02:35:07;11.88;;;4.65;;
76576;SDS011;65441;44.748;37.600;2023-02-28T02:37:42;10.95;;;4.18;;
76576;SDS011;65441;44.748;37.600;2023-02-28T02:40:17;10.43;;;4.35;;
76576;SDS011;65441;44.748;37.600;2023-02-28T02:42:49;12.82;;;4.53;;
76576;SDS011;65441;44.748;37.600;2023-02-28T02:45:24;8.88;;;4.18;;
76576;SDS011;65441;44.748;37.600;2023-02-28T02:47:56;16.38;;;4.88;;
76576;SDS011;65441;44.748;37.600;2023-02-28T02:50:33;13.73;;;4.60;;
76576;SDS011;65441;44.748;37.600;2023-02-28T02:53:05;9.57;;;3.80;;
76576;SDS011;65441;44.748;37.600;2023-02-28T02:55:36;12.82;;;4.38;;
76576;SDS011;65441;44.748;37.600;2023-02-28T02:58:10;9.65;;;3.78;;
76576;SDS011;65441;44.748;37.600;2023-02-28T03:00:44;8.82;;;3.70;;
76576;SDS011;65441;44.748;37.600;2023-02-28T03:03:18;10.13;;;4.22;;
76576;SDS011;65441;44.748;37.600;2023-02-28T03:05:57;11.35;;;4.38;;
76576;SDS011;65441;44.748;37.600;2023-02-28T03:08:28;8.85;;;3.90;;
76576;SDS011;65441;44.748;37.600;2023-02-28T03:10:58;13.68;;;4.28;;
76576;SDS011;65441;44.748;37.600;2023-02-28T03:13:34;12.05;;;4.00;;
76576;SDS011;65441;44.748;37.600;2023-02-28T03:16:23;10.68;;;3.72;;
76576;SDS011;65441;44.748;37.600;2023-02-28T03:19:03;8.25;;;3.42;;
76576;SDS011;65441;44.748;37.600;2023-02-28T03:21:46;11.05;;;4.85;;
76576;SDS011;65441;44.748;37.600;2023-02-28T03:24:21;12.63;;;4.63;;
76576;SDS011;65441;44.748;37.600;2023-02-28T03:26:57;12.07;;;4.50;;
76576;SDS011;65441;44.748;37.600;2023-02-28T03:29:42;12.05;;;4.97;;
76576;SDS011;65441;44.748;37.600;2023-02-28T03:32:16;12.90;;;4.43;;
76576;SDS011;65441;44.748;37.600;2023-02-28T03:34:50;11.63;;;4.65;;
76576;SDS011;65441;44.748;37.600;2023-02-28T03:37:25;10.00;;;4.28;;
76576;SDS011;65441;44.748;37.600;2023-02-28T03:39:58;11.10;;;4.22;;
76576;SDS011;65441;44.748;37.600;2023-02-28T03:42:31;13.18;;;5.60;;
76576;SDS011;65441;44.748;37.600;2023-02-28T03:45:02;10.05;;;4.72;;
76576;SDS011;65441;44.748;37.600;2023-02-28T03:47:35;12.98;;;5.13;;
76576;SDS011;65441;44.748;37.600;2023-02-28T03:50:07;14.68;;;5.70;;
76576;SDS011;65441;44.748;37.600;2023-02-28T03:55:13;21.85;;;4.70;;
76576;SDS011;65441;44.748;37.600;2023-02-28T03:57:47;14.50;;;4.60;;
76576;SDS011;65441;44.748;37.600;2023-02-28T04:00:25;15.32;;;4.78;;
76576;SDS011;65441;44.748;37.600;2023-02-28T04:02:56;14.68;;;4.63;;
76576;SDS011;65441;44.748;37.600;2023-02-28T04:05:25;13.93;;;5.00;;
76576;SDS011;65441;44.748;37.600;2023-02-28T04:08:04;14.77;;;5.15;;
76576;SDS011;65441;44.748;37.600;2023-02-28T04:10:33;10.02;;;4.63;;
76576;SDS011;65441;44.748;37.600;2023-02-28T04:13:02;16.25;;;4.35;;
76576;SDS011;65441;44.748;37.600;2023-02-28T04:15:31;12.20;;;3.33;;
76576;SDS011;65441;44.748;37.600;2023-02-28T04:17:59;14.65;;;4.78;;
76576;SDS011;65441;44.748;37.600;2023-02-28T04:20:29;10.10;;;4.53;;
76576;SDS011;65441;44.748;37.600;2023-02-28T04:22:58;15.68;;;4.35;;
76576;SDS011;65441;44.748;37.600;2023-02-28T04:25:28;13.90;;;4.63;;
76576;SDS011;65441;44.748;37.600;2023-02-28T04:27:56;11.55;;;4.47;;
76576;SDS011;65441;44.748;37.600;2023-02-28T04:30:25;32.03;;;6.90;;
76576;SDS011;65441;44.748;37.600;2023-02-28T04:32:56;19.48;;;8.43;;
76576;SDS011;65441;44.748;37.600;2023-02-28T04:35:25;28.00;;;8.15;;
76576;SDS011;65441;44.748;37.600;2023-02-28T04:37:53;24.17;;;7.97;;
76576;SDS011;65441;44.748;37.600;2023-02-28T04:40:22;18.08;;;6.38;;
76576;SDS011;65441;44.748;37.600;2023-02-28T04:42:52;13.02;;;4.80;;
76576;SDS011;65441;44.748;37.600;2023-02-28T04:45:21;11.02;;;4.30;;
76576;SDS011;65441;44.748;37.600;2023-02-28T04:47:50;11.13;;;4.50;;
76576;SDS011;65441;44.748;37.600;2023-02-28T04:50:20;15.13;;;4.47;;
76576;SDS011;65441;44.748;37.600;2023-02-28T04:52:48;13.48;;;4.80;;
76576;SDS011;65441;44.748;37.600;2023-02-28T04:55:17;15.10;;;5.38;;
76576;SDS011;65441;44.748;37.600;2023-02-28T04:57:46;22.40;;;6.72;;
76576;SDS011;65441;44.748;37.600;2023-02-28T05:00:16;20.90;;;6.72;;
76576;SDS011;65441;44.748;37.600;2023-02-28T05:02:45;34.30;;;7.95;;
76576;SDS011;65441;44.748;37.600;2023-02-28T05:05:14;19.60;;;6.80;;
76576;SDS011;65441;44.748;37.600;2023-02-28T05:07:44;22.50;;;5.90;;
76576;SDS011;65441;44.748;37.600;2023-02-28T05:10:13;18.77;;;6.57;;
76576;SDS011;65441;44.748;37.600;2023-02-28T05:12:42;21.17;;;6.32;;
76576;SDS011;65441;44.748;37.600;2023-02-28T05:15:11;24.35;;;6.78;;
76576;SDS011;65441;44.748;37.600;2023-02-28T05:17:43;32.30;;;6.90;;
76576;SDS011;65441;44.748;37.600;2023-02-28T05:20:12;13.48;;;4.80;;
76576;SDS011;65441;44.748;37.600;2023-02-28T05:22:41;16.08;;;5.00;;
76576;SDS011;65441;44.748;37.600;2023-02-28T05:25:10;21.55;;;6.78;;
76576;SDS011;65441;44.748;37.600;2023-02-28T05:27:41;14.70;;;5.50;;
76576;SDS011;65441;44.748;37.600;2023-02-28T05:30:10;14.98;;;6.15;;
76576;SDS011;65441;44.748;37.600;2023-02-28T05:32:40;15.95;;;6.25;;
76576;SDS011;65441;44.748;37.600;2023-02-28T05:35:10;14.13;;;5.90;;
76576;SDS011;65441;44.748;37.600;2023-02-28T05:37:39;23.30;;;5.68;;
76576;SDS011;65441;44.748;37.600;2023-02-28T05:40:08;17.55;;;5.93;;
76576;SDS011;65441;44.748;37.600;2023-02-28T05:42:38;23.25;;;6.90;;
76576;SDS011;65441;44.748;37.600;2023-02-28T05:45:07;14.68;;;5.38;;
76576;SDS011;65441;44.748;37.600;2023-02-28T05:47:37;22.52;;;5.72;;
76576;SDS011;65441;44.748;37.600;2023-02-28T05:50:06;24.98;;;7.50;;
76576;SDS011;65441;44.748;37.600;2023-02-28T05:52:38;14.35;;;4.88;;
76576;SDS011;65441;44.748;37.600;2023-02-28T05:55:07;10.20;;;4.20;;
76576;SDS011;65441;44.748;37.600;2023-02-28T05:57:36;12.90;;;4.85;;
76576;SDS011;65441;44.748;37.600;2023-02-28T06:00:06;21.77;;;6.25;;
76576;SDS011;65441;44.748;37.600;2023-02-28T06:02:38;14.45;;;5.07;;
76576;SDS011;65441;44.748;37.600;2023-02-28T06:05:08;13.00;;;5.55;;
76576;SDS011;65441;44.748;37.600;2023-02-28T06:07:43;19.77;;;5.53;;
76576;SDS011;65441;44.748;37.600;2023-02-28T06:10:12;12.18;;;4.50;;
76576;SDS011;65441;44.748;37.600;2023-02-28T06:12:41;10.98;;;4.70;;
76576;SDS011;65441;44.748;37.600;2023-02-28T06:15:11;18.58;;;6.00;;
76576;SDS011;65441;44.748;37.600;2023-02-28T06:17:41;28.42;;;9.05;;
76576;SDS011;65441;44.748;37.600;2023-02-28T06:20:10;11.95;;;4.50;;
76576;SDS011;65441;44.748;37.600;2023-02-28T06:22:40;13.52;;;4.13;;
76576;SDS011;65441;44.748;37.600;2023-02-28T06:25:10;10.07;;;3.97;;
76576;SDS011;65441;44.748;37.600;2023-02-28T06:27:39;11.90;;;3.85;;
76576;SDS011;65441;44.748;37.600;2023-02-28T06:30:08;24.08;;;8.10;;
76576;SDS011;65441;44.748;37.600;2023-02-28T06:32:37;11.02;;;4.82;;
76576;SDS011;65441;44.748;37.600;2023-02-28T06:35:07;12.80;;;5.00;;
76576;SDS011;65441;44.748;37.600;2023-02-28T06:37:36;17.85;;;4.88;;
76576;SDS011;65441;44.748;37.600;2023-02-28T06:40:05;18.95;;;6.63;;
76576;SDS011;65441;44.748;37.600;2023-02-28T06:42:35;12.60;;;5.13;;
76576;SDS011;65441;44.748;37.600;2023-02-28T06:45:05;9.98;;;4.57;;
76576;SDS011;65441;44.748;37.600;2023-02-28T06:47:41;22.75;;;4.85;;
76576;SDS011;65441;44.748;37.600;2023-02-28T06:50:13;9.80;;;3.55;;
76576;SDS011;65441;44.748;37.600;2023-02-28T06:52:48;16.52;;;4.20;;
76576;SDS011;65441;44.748;37.600;2023-02-28T06:55:20;8.88;;;4.05;;
76576;SDS011;65441;44.748;37.600;2023-02-28T06:57:50;8.90;;;3.83;;
76576;SDS011;65441;44.748;37.600;2023-02-28T07:00:21;17.65;;;5.35;;
76576;SDS011;65441;44.748;37.600;2023-02-28T07:02:50;17.67;;;4.72;;
76576;SDS011;65441;44.748;37.600;2023-02-28T07:05:20;14.80;;;4.30;;
76576;SDS011;65441;44.748;37.600;2023-02-28T07:07:49;11.30;;;4.00;;
76576;SDS011;65441;44.748;37.600;2023-02-28T07:10:19;10.65;;;3.90;;
76576;SDS011;65441;44.748;37.600;2023-02-28T07:12:48;10.63;;;3.90;;
76576;SDS011;65441;44.748;37.600;2023-02-28T07:15:19;8.45;;;3.55;;
76576;SDS011;65441;44.748;37.600;2023-02-28T07:17:47;9.35;;;3.60;;
76576;SDS011;65441;44.748;37.600;2023-02-28T07:20:16;10.63;;;4.00;;
76576;SDS011;65441;44.748;37.600;2023-02-28T07:22:45;9.90;;;3.85;;
76576;SDS011;65441;44.748;37.600;2023-02-28T07:25:21;8.25;;;3.83;;
76576;SDS011;65441;44.748;37.600;2023-02-28T07:27:50;13.48;;;3.85;;
76576;SDS011;65441;44.748;37.600;2023-02-28T07:30:20;9.15;;;3.85;;
76576;SDS011;65441;44.748;37.600;2023-02-28T07:32:49;11.90;;;4.22;;
76576;SDS011;65441;44.748;37.600;2023-02-28T07:35:18;13.52;;;4.28;;
76576;SDS011;65441;44.748;37.600;2023-02-28T07:37:46;11.23;;;3.50;;
76576;SDS011;65441;44.748;37.600;2023-02-28T07:40:15;11.93;;;4.20;;
76576;SDS011;65441;44.748;37.600;2023-02-28T07:42:44;7.68;;;3.17;;
76576;SDS011;65441;44.748;37.600;2023-02-28T07:45:17;9.82;;;3.78;;
76576;SDS011;65441;44.748;37.600;2023-02-28T07:47:49;10.00;;;4.05;;
76576;SDS011;65441;44.748;37.600;2023-02-28T07:50:18;14.63;;;4.18;;
76576;SDS011;65441;44.748;37.600;2023-02-28T07:52:47;18.50;;;3.75;;
76576;SDS011;65441;44.748;37.600;2023-02-28T07:55:15;10.13;;;3.42;;
76576;SDS011;65441;44.748;37.600;2023-02-28T07:57:44;10.85;;;3.40;;
76576;SDS011;65441;44.748;37.600;2023-02-28T08:00:14;11.27;;;3.70;;
76576;SDS011;65441;44.748;37.600;2023-02-28T08:02:43;10.48;;;3.50;;
76576;SDS011;65441;44.748;37.600;2023-02-28T08:05:12;9.32;;;3.92;;
76576;SDS011;65441;44.748;37.600;2023-02-28T08:07:41;14.40;;;5.15;;
76576;SDS011;65441;44.748;37.600;2023-02-28T08:10:10;8.52;;;3.70;;
76576;SDS011;65441;44.748;37.600;2023-02-28T08:12:39;12.95;;;5.13;;
76576;SDS011;65441;44.748;37.600;2023-02-28T08:15:08;11.52;;;3.28;;
76576;SDS011;65441;44.748;37.600;2023-02-28T08:17:37;8.13;;;3.50;;
76576;SDS011;65441;44.748;37.600;2023-02-28T08:20:06;19.75;;;6.82;;
76576;SDS011;65441;44.748;37.600;2023-02-28T08:22:38;12.13;;;4.10;;
76576;SDS011;65441;44.748;37.600;2023-02-28T08:25:07;13.23;;;4.68;;
76576;SDS011;65441;44.748;37.600;2023-02-28T08:27:36;10.32;;;3.60;;
76576;SDS011;65441;44.748;37.600;2023-02-28T08:30:05;9.20;;;4.05;;
76576;SDS011;65441;44.748;37.600;2023-02-28T08:32:35;12.80;;;4.47;;
76576;SDS011;65441;44.748;37.600;2023-02-28T08:35:04;15.02;;;5.60;;
76576;SDS011;65441;44.748;37.600;2023-02-28T08:37:35;19.77;;;5.07;;
76576;SDS011;65441;44.748;37.600;2023-02-28T08:40:06;8.98;;;3.80;;
76576;SDS011;65441;44.748;37.600;2023-02-28T08:42:36;9.43;;;3.75;;
76576;SDS011;65441;44.748;37.600;2023-02-28T08:45:05;20.88;;;7.13;;
76576;SDS011;65441;44.748;37.600;2023-02-28T08:47:34;15.70;;;5.55;;
76576;SDS011;65441;44.748;37.600;2023-02-28T08:50:03;16.88;;;4.75;;
76576;SDS011;65441;44.748;37.600;2023-02-28T08:52:33;12.35;;;4.45;;
76576;SDS011;65441;44.748;37.600;2023-02-28T08:55:03;13.73;;;4.68;;
76576;SDS011;65441;44.748;37.600;2023-02-28T08:57:34;15.32;;;3.65;;
76576;SDS011;65441;44.748;37.600;2023-02-28T09:00:04;8.52;;;3.78;;
76576;SDS011;65441;44.748;37.600;2023-02-28T09:02:34;19.60;;;4.10;;
76576;SDS011;65441;44.748;37.600;2023-02-28T09:05:04;9.68;;;3.65;;
76576;SDS011;65441;44.748;37.600;2023-02-28T09:07:33;10.00;;;3.25;;
76576;SDS011;65441;44.748;37.600;2023-02-28T09:10:04;12.70;;;4.43;;
76576;SDS011;65441;44.748;37.600;2023-02-28T09:12:34;9.80;;;3.72;;
76576;SDS011;65441;44.748;37.600;2023-02-28T09:15:03;14.75;;;4.07;;
76576;SDS011;65441;44.748;37.600;2023-02-28T09:17:33;13.18;;;3.95;;
76576;SDS011;65441;44.748;37.600;2023-02-28T09:20:01;9.80;;;4.03;;
76576;SDS011;65441;44.748;37.600;2023-02-28T09:22:30;7.60;;;3.63;;
76576;SDS011;65441;44.748;37.600;2023-02-28T09:24:59;11.57;;;4.00;;
76576;SDS011;65441;44.748;37.600;2023-02-28T09:27:29;16.95;;;5.03;;
76576;SDS011;65441;44.748;37.600;2023-02-28T09:29:57;24.45;;;7.05;;
76576;SDS011;65441;44.748;37.600;2023-02-28T09:32:26;10.32;;;3.95;;
76576;SDS011;65441;44.748;37.600;2023-02-28T09:34:55;11.95;;;3.92;;
76576;SDS011;65441;44.748;37.600;2023-02-28T09:37:24;13.10;;;4.50;;
76576;SDS011;65441;44.748;37.600;2023-02-28T09:39:55;11.07;;;4.00;;
76576;SDS011;65441;44.748;37.600;2023-02-28T09:42:25;17.88;;;3.65;;
76576;SDS011;65441;44.748;37.600;2023-02-28T09:45:00;10.30;;;3.40;;
76576;SDS011;65441;44.748;37.600;2023-02-28T09:47:34;13.05;;;4.07;;
76576;SDS011;65441;44.748;37.600;2023-02-28T09:50:12;8.82;;;3.30;;
76576;SDS011;65441;44.748;37.600;2023-02-28T09:52:46;11.50;;;3.55;;
76576;SDS011;65441;44.748;37.600;2023-02-28T09:55:19;9.10;;;3.50;;
76576;SDS011;65441;44.748;37.600;2023-02-28T09:57:55;12.18;;;3.95;;
76576;SDS011;65441;44.748;37.600;2023-02-28T10:00:28;9.48;;;3.80;;
76576;SDS011;65441;44.748;37.600;2023-02-28T10:03:14;9.25;;;3.67;;
76576;SDS011;65441;44.748;37.600;2023-02-28T10:05:56;11.70;;;3.97;;
76576;SDS011;65441;44.748;37.600;2023-02-28T10:08:33;11.27;;;4.10;;
76576;SDS011;65441;44.748;37.600;2023-02-28T10:11:09;11.05;;;4.20;;
76576;SDS011;65441;44.748;37.600;2023-02-28T10:13:44;12.63;;;4.25;;
76576;SDS011;65441;44.748;37.600;2023-02-28T10:16:24;11.98;;;4.55;;
76576;SDS011;65441;44.748;37.600;2023-02-28T10:18:56;17.50;;;5.25;;
76576;SDS011;65441;44.748;37.600;2023-02-28T10:21:31;20.10;;;6.32;;
76576;SDS011;65441;44.748;37.600;2023-02-28T10:24:07;19.45;;;6.95;;
76576;SDS011;65441;44.748;37.600;2023-02-28T10:26:47;13.35;;;5.78;;
76576;SDS011;65441;44.748;37.600;2023-02-28T10:29:17;12.15;;;4.80;;
76576;SDS011;65441;44.748;37.600;2023-02-28T10:31:46;38.65;;;11.20;;
76576;SDS011;65441;44.748;37.600;2023-02-28T10:34:15;23.23;;;7.68;;
76576;SDS011;65441;44.748;37.600;2023-02-28T10:36:43;33.63;;;11.40;;
76576;SDS011;65441;44.748;37.600;2023-02-28T10:39:34;16.17;;;6.70;;
76576;SDS011;65441;44.748;37.600;2023-02-28T10:42:04;33.55;;;10.75;;
76576;SDS011;65441;44.748;37.600;2023-02-28T10:44:46;20.38;;;7.38;;
76576;SDS011;65441;44.748;37.600;2023-02-28T10:47:15;20.25;;;8.43;;
76576;SDS011;65441;44.748;37.600;2023-02-28T10:49:47;28.23;;;9.13;;
76576;SDS011;65441;44.748;37.600;2023-02-28T10:52:33;28.48;;;9.60;;
76576;SDS011;65441;44.748;37.600;2023-02-28T10:55:14;37.30;;;9.95;;
76576;SDS011;65441;44.748;37.600;2023-02-28T10:57:49;20.45;;;6.82;;
76576;SDS011;65441;44.748;37.600;2023-02-28T11:00:20;33.50;;;10.48;;
76576;SDS011;65441;44.748;37.600;2023-02-28T11:02:55;53.58;;;16.08;;
76576;SDS011;65441;44.748;37.600;2023-02-28T11:05:27;45.17;;;14.68;;
76576;SDS011;65441;44.748;37.600;2023-02-28T11:08:02;38.20;;;14.85;;
76576;SDS011;65441;44.748;37.600;2023-02-28T11:10:34;19.75;;;8.55;;
76576;SDS011;65441;44.748;37.600;2023-02-28T11:13:03;18.00;;;7.65;;
76576;SDS011;65441;44.748;37.600;2023-02-28T11:15:35;23.95;;;9.48;;
76576;SDS011;65441;44.748;37.600;2023-02-28T11:18:15;17.40;;;7.00;;
76576;SDS011;65441;44.748;37.600;2023-02-28T11:20:52;18.15;;;7.05;;
76576;SDS011;65441;44.748;37.600;2023-02-28T11:23:22;21.30;;;7.07;;
76576;SDS011;65441;44.748;37.600;2023-02-28T11:25:55;21.38;;;7.90;;
76576;SDS011;65441;44.748;37.600;2023-02-28T11:28:28;17.75;;;6.53;;
76576;SDS011;65441;44.748;37.600;2023-02-28T11:31:04;14.55;;;6.53;;
76576;SDS011;65441;44.748;37.600;2023-02-28T11:33:43;18.70;;;7.35;;
76576;SDS011;65441;44.748;37.600;2023-02-28T11:36:13;14.25;;;6.00;;
76576;SDS011;65441;44.748;37.600;2023-02-28T11:38:44;13.63;;;5.63;;
76576;SDS011;65441;44.748;37.600;2023-02-28T11:41:18;23.48;;;5.82;;
76576;SDS011;65441;44.748;37.600;2023-02-28T11:44:23;10.27;;;5.35;;
76576;SDS011;65441;44.748;37.600;2023-02-28T11:47:02;14.05;;;5.60;;
76576;SDS011;65441;44.748;37.600;2023-02-28T11:49:42;13.52;;;5.30;;
76576;SDS011;65441;44.748;37.600;2023-02-28T11:52:20;14.25;;;5.78;;
76576;SDS011;65441;44.748;37.600;2023-02-28T11:54:58;12.02;;;5.32;;
76576;SDS011;65441;44.748;37.600;2023-02-28T11:57:43;11.10;;;4.78;;
76576;SDS011;65441;44.748;37.600;2023-02-28T12:00:27;14.00;;;5.53;;
76576;SDS011;65441;44.748;37.600;2023-02-28T12:03:11;12.23;;;5.50;;
76576;SDS011;65441;44.748;37.600;2023-02-28T12:05:52;13.02;;;5.50;;
76576;SDS011;65441;44.748;37.600;2023-02-28T12:08:33;11.05;;;5.25;;
76576;SDS011;65441;44.748;37.600;2023-02-28T12:11:13;13.27;;;4.85;;
76576;SDS011;65441;44.748;37.600;2023-02-28T12:13:53;14.15;;;4.97;;
76576;SDS011;65441;44.748;37.600;2023-02-28T12:19:25;12.02;;;5.07;;
76576;SDS011;65441;44.748;37.600;2023-02-28T12:22:05;13.35;;;5.10;;
76576;SDS011;65441;44.748;37.600;2023-02-28T12:25:09;12.50;;;5.03;;
76576;SDS011;65441;44.748;37.600;2023-02-28T12:28:00;11.95;;;4.95;;
76576;SDS011;65441;44.748;37.600;2023-02-28T12:30:31;12.15;;;5.00;;
76576;SDS011;65441;44.748;37.600;2023-02-28T12:33:03;14.48;;;5.57;;
76576;SDS011;65441;44.748;37.600;2023-02-28T12:35:36;15.18;;;5.25;;
76576;SDS011;65441;44.748;37.600;2023-02-28T12:38:09;11.50;;;4.93;;
76576;SDS011;65441;44.748;37.600;2023-02-28T12:40:42;13.27;;;5.13;;
76576;SDS011;65441;44.748;37.600;2023-02-28T12:43:14;14.20;;;5.15;;
76576;SDS011;65441;44.748;37.600;2023-02-28T12:45:46;14.45;;;5.45;;
76576;SDS011;65441;44.748;37.600;2023-02-28T12:48:20;13.93;;;5.80;;
76576;SDS011;65441;44.748;37.600;2023-02-28T12:51:03;18.17;;;7.00;;
76576;SDS011;65441;44.748;37.600;2023-02-28T12:53:35;12.65;;;5.25;;
76576;SDS011;65441;44.748;37.600;2023-02-28T12:56:21;13.25;;;5.63;;
76576;SDS011;65441;44.748;37.600;2023-02-28T12:58:59;18.48;;;6.60;;
76576;SDS011;65441;44.748;37.600;2023-02-28T13:01:36;15.23;;;6.85;;
76576;SDS011;65441;44.748;37.600;2023-02-28T13:04:24;16.45;;;6.60;;
76576;SDS011;65441;44.748;37.600;2023-02-28T13:12:49;17.05;;;6.60;;
76576;SDS011;65441;44.748;37.600;2023-02-28T13:15:20;18.48;;;6.90;;
76576;SDS011;65441;44.748;37.600;2023-02-28T13:17:52;19.00;;;7.70;;
76576;SDS011;65441;44.748;37.600;2023-02-28T13:20:23;21.27;;;7.65;;
76576;SDS011;65441;44.748;37.600;2023-02-28T13:22:56;22.85;;;7.97;;
76576;SDS011;65441;44.748;37.600;2023-02-28T13:38:39;20.13;;;7.20;;
76576;SDS011;65441;44.748;37.600;2023-02-28T13:44:10;33.15;;;7.70;;
76576;SDS011;65441;44.748;37.600;2023-02-28T13:49:47;19.17;;;7.03;;
76576;SDS011;65441;44.748;37.600;2023-02-28T13:52:18;18.60;;;7.03;;
76576;SDS011;65441;44.748;37.600;2023-02-28T13:54:58;20.63;;;8.07;;
76576;SDS011;65441;44.748;37.600;2023-02-28T13:57:52;21.40;;;8.23;;
76576;SDS011;65441;44.748;37.600;2023-02-28T14:00:43;18.00;;;8.32;;
76576;SDS011;65441;44.748;37.600;2023-02-28T14:03:28;19.23;;;8.65;;
76576;SDS011;65441;44.748;37.600;2023-02-28T14:06:22;20.65;;;8.20;;
76576;SDS011;65441;44.748;37.600;2023-02-28T14:08:55;19.75;;;8.38;;
76576;SDS011;65441;44.748;37.600;2023-02-28T14:11:30;21.67;;;8.23;;
76576;SDS011;65441;44.748;37.600;2023-02-28T14:14:00;17.77;;;7.68;;
76576;SDS011;65441;44.748;37.600;2023-02-28T14:16:39;18.95;;;7.90;;
76576;SDS011;65441;44.748;37.600;2023-02-28T14:19:11;21.25;;;7.97;;
76576;SDS011;65441;44.748;37.600;2023-02-28T14:21:50;17.80;;;7.60;;
76576;SDS011;65441;44.748;37.600;2023-02-28T14:24:39;21.67;;;8.45;;
76576;SDS011;65441;44.748;37.600;2023-02-28T14:27:32;19.33;;;8.07;;
76576;SDS011;65441;44.748;37.600;2023-02-28T14:30:16;16.00;;;7.53;;
76576;SDS011;65441;44.748;37.600;2023-02-28T14:36:18;16.85;;;7.18;;
76576;SDS011;65441;44.748;37.600;2023-02-28T14:41:24;19.60;;;7.35;;
76576;SDS011;65441;44.748;37.600;2023-02-28T14:44:00;21.15;;;8.40;;
76576;SDS011;65441;44.748;37.600;2023-02-28T14:46:34;21.65;;;7.55;;
76576;SDS011;65441;44.748;37.600;2023-02-28T14:49:05;25.33;;;9.05;;
76576;SDS011;65441;44.748;37.600;2023-02-28T14:51:40;20.67;;;7.35;;
76576;SDS011;65441;44.748;37.600;2023-02-28T14:54:12;19.20;;;7.95;;
76576;SDS011;65441;44.748;37.600;2023-02-28T14:56:43;20.23;;;7.93;;
76576;SDS011;65441;44.748;37.600;2023-02-28T15:01:52;19.17;;;7.43;;
76576;SDS011;65441;44.748;37.600;2023-02-28T15:04:22;20.95;;;7.95;;
76576;SDS011;65441;44.748;37.600;2023-02-28T15:07:08;19.77;;;7.70;;
76576;SDS011;65441;44.748;37.600;2023-02-28T15:09:38;19.08;;;7.22;;
76576;SDS011;65441;44.748;37.600;2023-02-28T15:12:06;19.33;;;7.28;;
76576;SDS011;65441;44.748;37.600;2023-02-28T15:14:37;19.35;;;7.10;;
76576;SDS011;65441;44.748;37.600;2023-02-28T15:17:11;17.73;;;6.30;;
76576;SDS011;65441;44.748;37.600;2023-02-28T15:19:51;16.83;;;6.18;;
76576;SDS011;65441;44.748;37.600;2023-02-28T15:22:23;17.90;;;6.32;;
76576;SDS011;65441;44.748;37.600;2023-02-28T15:24:57;13.60;;;5.00;;
76576;SDS011;65441;44.748;37.600;2023-02-28T15:27:27;15.70;;;5.95;;
76576;SDS011;65441;44.748;37.600;2023-02-28T15:30:04;14.82;;;5.18;;
76576;SDS011;65441;44.748;37.600;2023-02-28T15:32:36;12.25;;;4.43;;
76576;SDS011;65441;44.748;37.600;2023-02-28T15:35:19;13.13;;;4.60;;
76576;SDS011;65441;44.748;37.600;2023-02-28T15:37:56;14.68;;;4.88;;
76576;SDS011;65441;44.748;37.600;2023-02-28T15:40:26;15.10;;;4.35;;
76576;SDS011;65441;44.748;37.600;2023-02-28T15:42:58;10.38;;;3.80;;